| time (UTC) | temp F | wind direction | speed MPH | gust MPH | rain 1hr in | rain 24hr in | rain mn in | humidity % | barometer mb |
| 20260510054429 | 55 | 171 | 0.0 | 0.0 | 0.00 | 0.00 | 0.00 | 65 | 1012.6 |
| 20260510053431 | 55 | 171 | 0.0 | 0.0 | 0.00 | 0.00 | 0.00 | 65 | 1012.4 |
| 20260510052429 | 54 | 159 | 0.0 | 2.0 | 0.00 | 0.00 | 0.00 | 65 | 1012.4 |
| 20260510051429 | 54 | 163 | 0.0 | 2.0 | 0.00 | 0.00 | 0.00 | 66 | 1012.4 |
| 20260510050430 | 53 | 163 | 2.0 | 4.0 | 0.00 | 0.00 | 0.00 | 66 | 1012.5 |
| 20260510045429 | 53 | 163 | 2.0 | 5.0 | 0.00 | 0.00 | 0.00 | 66 | 1012.4 |
| 20260510044429 | 53 | 163 | 2.0 | 4.0 | 0.00 | 0.00 | 0.00 | 65 | 1012.5 |
| 20260510043429 | 53 | 163 | 0.0 | 2.0 | 0.00 | 0.00 | 0.00 | 65 | 1012.6 |
| 20260510042431 | 53 | 167 | 0.0 | 1.0 | 0.00 | 0.00 | 0.00 | 65 | 1012.6 |
| 20260510041430 | 53 | 167 | 1.0 | 3.0 | 0.00 | 0.00 | 0.00 | 65 | 1012.5 |
| 20260510040424 | 53 | 188 | 1.0 | 3.0 | 0.00 | 0.01 | 0.00 | 65 | 1012.6 |
| 20260510035423 | 54 | 188 | 3.0 | 7.0 | 0.00 | 0.01 | 0.00 | 64 | 1012.9 |
| 20260510034423 | 53 | 173 | 1.0 | 7.0 | 0.00 | 0.01 | 0.00 | 65 | 1012.9 |
| 20260510033426 | 53 | 129 | 0.0 | 2.0 | 0.00 | 0.01 | 0.00 | 66 | 1012.8 |
| 20260510032423 | 53 | 129 | 2.0 | 3.0 | 0.00 | 0.01 | 0.00 | 66 | 1012.9 |
| 20260510031424 | 53 | 76 | 0.0 | 0.0 | 0.00 | 0.01 | 0.00 | 66 | 1012.9 |
| 20260510030423 | 53 | 76 | 0.0 | 0.0 | 0.00 | 0.01 | 0.00 | 66 | 1012.8 |
| 20260510024425 | 54 | 76 | 0.0 | 0.0 | 0.00 | 0.01 | 0.00 | 65 | 1013.0 |
| 20260510023418 | 54 | 76 | 0.0 | 2.0 | 0.00 | 0.01 | 0.00 | 65 | 1013.1 |
| 20260510022417 | 54 | 76 | 1.0 | 3.0 | 0.00 | 0.01 | 0.00 | 65 | 1013.1 |
| 20260510021417 | 55 | 76 | 1.0 | 3.0 | 0.00 | 0.01 | 0.00 | 65 | 1013.2 |
| 20260510020418 | 56 | 76 | 2.0 | 4.0 | 0.00 | 0.01 | 0.00 | 63 | 1013.1 |
| 20260510015417 | 55 | 76 | 2.0 | 4.0 | 0.00 | 0.01 | 0.00 | 63 | 1013.1 |
| 20260510014418 | 55 | 117 | 4.0 | 7.0 | 0.00 | 0.01 | 0.00 | 64 | 1013.2 |
| 20260510013418 | 56 | 113 | 1.0 | 6.0 | 0.00 | 0.01 | 0.00 | 62 | 1013.2 |
| 20260510012418 | 56 | 136 | 0.0 | 2.0 | 0.00 | 0.01 | 0.00 | 62 | 1013.3 |
| 20260510011418 | 56 | 136 | 1.0 | 2.0 | 0.00 | 0.01 | 0.00 | 62 | 1013.3 |
| 20260510010413 | 56 | 136 | 1.0 | 2.0 | 0.00 | 0.01 | 0.00 | 62 | 1013.4 |
| 20260510005413 | 57 | 136 | 1.0 | 3.0 | 0.00 | 0.01 | 0.00 | 61 | 1013.4 |
| 20260510004415 | 57 | 136 | 1.0 | 3.0 | 0.00 | 0.01 | 0.00 | 60 | 1013.5 |
| 20260510003413 | 58 | 136 | 2.0 | 3.0 | 0.00 | 0.01 | 0.00 | 60 | 1013.6 |
| 20260510002412 | 58 | 136 | 3.0 | 7.0 | 0.00 | 0.01 | 0.00 | 60 | 1013.7 |
| 20260510001413 | 56 | 137 | 2.0 | 7.0 | 0.00 | 0.01 | 0.00 | 63 | 1013.7 |
| 20260510000414 | 56 | 76 | 0.0 | 2.0 | 0.00 | 0.01 | 0.00 | 62 | 1013.8 |
| 20260509235415 | 56 | 76 | 1.0 | 2.0 | 0.00 | 0.01 | 0.00 | 61 | 1013.9 |
| 20260509234411 | 57 | 76 | 2.0 | 2.0 | 0.00 | 0.01 | 0.00 | 61 | 1013.9 |
| 20260509233413 | 57 | 76 | 2.0 | 2.0 | 0.00 | 0.01 | 0.00 | 61 | 1013.9 |
| 20260509232411 | 57 | 76 | 2.0 | 3.0 | 0.00 | 0.01 | 0.00 | 61 | 1014.0 |
| 20260509231410 | 58 | 76 | 2.0 | 3.0 | 0.00 | 0.01 | 0.00 | 58 | 1014.1 |
| 20260509230411 | 58 | 76 | 1.0 | 3.0 | 0.00 | 0.01 | 0.00 | 57 | 1014.0 |
| 20260509225410 | 58 | 76 | 0.0 | 1.0 | 0.00 | 0.01 | 0.00 | 57 | 1014.1 |
| 20260509224410 | 59 | 76 | 1.0 | 3.0 | 0.00 | 0.01 | 0.00 | 57 | 1014.2 |
| 20260509222408 | 59 | 101 | 3.0 | 6.0 | 0.00 | 0.01 | 0.00 | 56 | 1014.2 |
| 20260509221408 | 59 | 99 | 3.0 | 4.0 | 0.00 | 0.01 | 0.00 | 58 | 1014.2 |
| 20260509220406 | 61 | 68 | 3.0 | 4.0 | 0.00 | 0.01 | 0.00 | 53 | 1014.4 |
| 20260509215406 | 62 | 67 | 1.0 | 3.0 | 0.00 | 0.01 | 0.01 | 52 | 1014.4 |
| 20260509214408 | 62 | 67 | 0.0 | 0.0 | 0.00 | 0.01 | 0.01 | 50 | 1014.5 |
| 20260509213407 | 62 | 67 | 0.0 | 0.0 | 0.00 | 0.01 | 0.01 | 49 | 1014.6 |
| 20260509210408 | 61 | 68 | 1.0 | 3.0 | 0.00 | 0.01 | 0.01 | 53 | 1014.7 |
| 20260509204408 | 62 | 67 | 3.0 | 4.0 | 0.00 | 0.01 | 0.01 | 52 | 1014.6 |
| 20260509203406 | 62 | 66 | 3.0 | 5.0 | 0.00 | 0.01 | 0.01 | 52 | 1014.6 |
| 20260509202404 | 62 | 67 | 2.0 | 3.0 | 0.00 | 0.01 | 0.01 | 50 | 1014.6 |
| 20260509201404 | 63 | 67 | 2.0 | 3.0 | 0.00 | 0.01 | 0.01 | 49 | 1014.6 |
| 20260509200404 | 63 | 67 | 2.0 | 4.0 | 0.00 | 0.01 | 0.01 | 48 | 1014.6 |
| 20260509195405 | 63 | 98 | 0.0 | 2.0 | 0.00 | 0.01 | 0.01 | 49 | 1014.7 |
| 20260509194405 | 63 | 98 | 1.0 | 2.0 | 0.00 | 0.01 | 0.01 | 49 | 1014.7 |
| 20260509192403 | 64 | 98 | 4.0 | 6.0 | 0.00 | 0.01 | 0.01 | 49 | 1014.5 |
| 20260509191403 | 63 | 91 | 5.0 | 8.0 | 0.00 | 0.01 | 0.01 | 49 | 1014.5 |
| 20260509190403 | 64 | 82 | 4.0 | 5.0 | 0.00 | 0.01 | 0.01 | 49 | 1014.5 |
| 20260509185403 | 65 | 76 | 4.0 | 8.0 | 0.00 | 0.01 | 0.01 | 46 | 1014.5 |
| 20260509184400 | 65 | 59 | 5.0 | 8.0 | 0.00 | 0.01 | 0.01 | 44 | 1014.5 |
| 20260509183400 | 65 | 68 | 6.0 | 11.0 | 0.00 | 0.01 | 0.01 | 44 | 1014.5 |
| 20260509182359 | 66 | 54 | 5.0 | 10.0 | 0.00 | 0.01 | 0.01 | 44 | 1014.5 |
| 20260509181400 | 66 | 57 | 4.0 | 8.0 | 0.00 | 0.01 | 0.01 | 44 | 1014.5 |
| 20260509180358 | 66 | 66 | 5.0 | 8.0 | 0.00 | 0.02 | 0.01 | 44 | 1014.4 |
| 20260509175358 | 67 | 61 | 6.0 | 11.0 | 0.00 | 0.03 | 0.01 | 44 | 1014.4 |
| 20260509173356 | 68 | 65 | 7.0 | 14.0 | 0.00 | 0.05 | 0.01 | 39 | 1014.2 |
| 20260509172351 | 68 | 45 | 6.0 | 10.0 | 0.00 | 0.05 | 0.01 | 40 | 1014.2 |
| 20260509171353 | 68 | 26 | 8.0 | 14.0 | 0.00 | 0.05 | 0.01 | 42 | 1014.2 |
| 20260509164350 | 69 | 5 | 10.0 | 15.0 | 0.00 | 0.05 | 0.01 | 42 | 1014.4 |
| 20260509162353 | 69 | 36 | 8.0 | 16.0 | 0.00 | 0.05 | 0.01 | 41 | 1014.5 |
| 20260509161350 | 70 | 5 | 8.0 | 14.0 | 0.00 | 0.05 | 0.01 | 40 | 1014.5 |
| 20260509160351 | 70 | 343 | 9.0 | 14.0 | 0.00 | 0.05 | 0.01 | 44 | 1014.6 |
| 20260509155348 | 70 | 32 | 10.0 | 17.0 | 0.00 | 0.05 | 0.01 | 40 | 1014.6 |
| 20260509153349 | 71 | 355 | 8.0 | 12.0 | 0.00 | 0.05 | 0.01 | 42 | 1014.6 |
| 20260509151350 | 70 | 34 | 6.0 | 14.0 | 0.00 | 0.05 | 0.01 | 41 | 1014.7 |
| 20260509150348 | 70 | 83 | 8.0 | 14.0 | 0.00 | 0.05 | 0.01 | 36 | 1015.0 |
| 20260509145348 | 70 | 65 | 9.0 | 13.0 | 0.00 | 0.05 | 0.01 | 39 | 1015.0 |
| 20260509144348 | 70 | 22 | 9.0 | 15.0 | 0.00 | 0.05 | 0.01 | 43 | 1014.8 |
| 20260509142349 | 70 | 76 | 9.0 | 15.0 | 0.00 | 0.05 | 0.01 | 39 | 1015.1 |
| 20260509141347 | 69 | 32 | 11.0 | 18.0 | 0.00 | 0.05 | 0.01 | 42 | 1015.0 |
| 20260509140347 | 69 | 5 | 10.0 | 18.0 | 0.00 | 0.05 | 0.01 | 43 | 1015.0 |
| 20260509135348 | 69 | 13 | 10.0 | 17.0 | 0.00 | 0.05 | 0.01 | 43 | 1015.2 |
| 20260509133346 | 69 | 48 | 8.0 | 16.0 | 0.00 | 0.05 | 0.01 | 42 | 1015.6 |
| 20260509132348 | 69 | 35 | 10.0 | 16.0 | 0.00 | 0.05 | 0.01 | 44 | 1016.0 |
| 20260509131345 | 69 | 5 | 11.0 | 18.0 | 0.00 | 0.05 | 0.01 | 45 | 1016.1 |
| 20260509130344 | 69 | 20 | 10.0 | 17.0 | 0.00 | 0.05 | 0.01 | 45 | 1016.2 |
| 20260509124343 | 68 | 19 | 9.0 | 16.0 | 0.00 | 0.05 | 0.01 | 46 | 1016.4 |
| 20260509123345 | 69 | 23 | 7.0 | 14.0 | 0.00 | 0.05 | 0.01 | 43 | 1016.3 |
| 20260509122344 | 68 | 35 | 8.0 | 15.0 | 0.00 | 0.05 | 0.01 | 44 | 1016.5 |
| 20260509121345 | 68 | 11 | 8.0 | 15.0 | 0.00 | 0.05 | 0.01 | 47 | 1016.6 |
| 20260509120343 | 68 | 30 | 8.0 | 13.0 | 0.00 | 0.05 | 0.01 | 46 | 1016.7 |
| 20260509115345 | 68 | 57 | 7.0 | 14.0 | 0.00 | 0.05 | 0.01 | 48 | 1016.8 |
| 20260509113343 | 67 | 33 | 6.0 | 13.0 | 0.00 | 0.05 | 0.01 | 49 | 1017.1 |
| 20260509112343 | 67 | 46 | 7.0 | 13.0 | 0.00 | 0.05 | 0.01 | 46 | 1017.3 |
| 20260509111343 | 67 | 349 | 6.0 | 11.0 | 0.00 | 0.05 | 0.01 | 50 | 1017.4 |
| 20260509110343 | 67 | 37 | 6.0 | 12.0 | 0.00 | 0.05 | 0.01 | 50 | 1017.6 |
| 20260509105338 | 66 | 5 | 7.0 | 12.0 | 0.00 | 0.05 | 0.01 | 52 | 1017.7 |
| 20260509104338 | 66 | 345 | 9.0 | 14.0 | 0.00 | 0.05 | 0.01 | 54 | 1017.9 |
| 20260509103339 | 66 | 14 | 7.0 | 12.0 | 0.00 | 0.05 | 0.01 | 51 | 1017.9 |
| 20260509102339 | 65 | 55 | 5.0 | 12.0 | 0.00 | 0.05 | 0.01 | 54 | 1018.0 |
| 20260509101339 | 65 | 13 | 6.0 | 10.0 | 0.00 | 0.05 | 0.01 | 49 | 1018.2 |
| 20260509100338 | 65 | 31 | 4.0 | 10.0 | 0.00 | 0.05 | 0.01 | 53 | 1018.2 |
| 20260509095339 | 64 | 51 | 7.0 | 11.0 | 0.00 | 0.05 | 0.01 | 50 | 1018.4 |
| 20260509094335 | 64 | 36 | 6.0 | 10.0 | 0.00 | 0.05 | 0.01 | 52 | 1018.4 |
| 20260509093335 | 64 | 50 | 5.0 | 10.0 | 0.00 | 0.05 | 0.01 | 53 | 1018.6 |
| 20260509092336 | 64 | 17 | 4.0 | 8.0 | 0.00 | 0.05 | 0.01 | 55 | 1018.5 |
| 20260509091334 | 63 | 5 | 5.0 | 10.0 | 0.00 | 0.05 | 0.01 | 55 | 1018.5 |
| 20260509090334 | 63 | 5 | 5.0 | 9.0 | 0.00 | 0.05 | 0.01 | 58 | 1018.6 |
| 20260509085333 | 62 | 32 | 3.0 | 7.0 | 0.00 | 0.05 | 0.01 | 59 | 1018.6 |
| 20260509083335 | 62 | 28 | 2.0 | 5.0 | 0.00 | 0.05 | 0.01 | 59 | 1018.7 |
| 20260509082336 | 61 | 75 | 3.0 | 6.0 | 0.00 | 0.05 | 0.01 | 59 | 1018.6 |
| 20260509081331 | 60 | 307 | 2.0 | 4.0 | 0.00 | 0.05 | 0.01 | 60 | 1018.8 |
| 20260509080333 | 59 | 307 | 3.0 | 7.0 | 0.00 | 0.05 | 0.01 | 63 | 1018.8 |
| 20260509075331 | 58 | 302 | 4.0 | 8.0 | 0.00 | 0.05 | 0.01 | 65 | 1018.8 |
| 20260509074330 | 58 | 313 | 4.0 | 7.0 | 0.00 | 0.05 | 0.01 | 67 | 1018.9 |
| 20260509073329 | 57 | 302 | 6.0 | 8.0 | 0.00 | 0.05 | 0.01 | 68 | 1018.9 |
| 20260509071329 | 56 | 314 | 4.0 | 8.0 | 0.00 | 0.05 | 0.01 | 66 | 1018.9 |
| 20260509070329 | 57 | 55 | 1.0 | 2.0 | 0.00 | 0.05 | 0.01 | 65 | 1018.8 |
| 20260509065330 | 56 | 55 | 2.0 | 4.0 | 0.00 | 0.05 | 0.01 | 67 | 1018.8 |
| 20260509064324 | 55 | 55 | 3.0 | 5.0 | 0.00 | 0.05 | 0.01 | 68 | 1018.7 |
| 20260509063325 | 54 | 70 | 2.0 | 5.0 | 0.00 | 0.05 | 0.01 | 70 | 1018.6 |
| 20260509062323 | 54 | 152 | 1.0 | 3.0 | 0.00 | 0.05 | 0.01 | 69 | 1018.7 |
| 20260509061324 | 54 | 152 | 0.0 | 0.0 | 0.00 | 0.05 | 0.01 | 68 | 1018.7 |
| 20260509060323 | 54 | 152 | 0.0 | 0.0 | 0.00 | 0.05 | 0.01 | 68 | 1018.7 |